sensor_id;sensor_type;location;lat;lon;timestamp;pressure;altitude;pressure_sealevel;temperature;humidity
30339;BME280;795;49.296;11.348;2023-04-28T00:01:40;96337.16;;;9.26;91.44
30339;BME280;795;49.296;11.348;2023-04-28T00:04:08;96329.44;;;9.23;92.11
30339;BME280;795;49.296;11.348;2023-04-28T00:06:35;96339.16;;;9.24;92.59
30339;BME280;795;49.296;11.348;2023-04-28T00:09:02;96323.38;;;9.13;92.86
30339;BME280;795;49.296;11.348;2023-04-28T00:11:29;96321.22;;;9.17;93.96
30339;BME280;795;49.296;11.348;2023-04-28T00:13:56;96326.53;;;9.09;94.01
30339;BME280;795;49.296;11.348;2023-04-28T00:16:23;96337.06;;;9.02;94.37
30339;BME280;795;49.296;11.348;2023-04-28T00:18:50;96247.88;;;8.52;93.93
30339;BME280;795;49.296;11.348;2023-04-28T00:21:17;96266.72;;;8.42;94.51
30339;BME280;795;49.296;11.348;2023-04-28T00:23:44;96333.03;;;8.98;94.99
30339;BME280;795;49.296;11.348;2023-04-28T00:26:11;96238.16;;;8.51;95.90
30339;BME280;795;49.296;11.348;2023-04-28T00:28:38;96313.59;;;8.96;96.41
30339;BME280;795;49.296;11.348;2023-04-28T00:31:13;96250.41;;;8.61;96.50
30339;BME280;795;49.296;11.348;2023-04-28T00:33:43;96302.09;;;8.96;97.42
30339;BME280;795;49.296;11.348;2023-04-28T00:36:11;96231.94;;;8.50;97.01
30339;BME280;795;49.296;11.348;2023-04-28T00:38:38;96311.09;;;8.95;96.45
30339;BME280;795;49.296;11.348;2023-04-28T00:41:05;96301.06;;;8.97;98.06
30339;BME280;795;49.296;11.348;2023-04-28T00:43:46;96223.25;;;8.48;97.26
30339;BME280;795;49.296;11.348;2023-04-28T00:46:23;96270.88;;;8.79;96.34
30339;BME280;795;49.296;11.348;2023-04-28T00:48:51;96299.75;;;9.01;96.36
30339;BME280;795;49.296;11.348;2023-04-28T00:51:18;96229.69;;;8.63;96.44
30339;BME280;795;49.296;11.348;2023-04-28T00:53:44;96291.38;;;9.04;97.28
30339;BME280;795;49.296;11.348;2023-04-28T00:56:12;96282.63;;;8.94;97.12
30339;BME280;795;49.296;11.348;2023-04-28T00:58:39;96213.25;;;8.58;96.80
30339;BME280;795;49.296;11.348;2023-04-28T01:01:09;96297.56;;;9.04;95.84
30339;BME280;795;49.296;11.348;2023-04-28T01:03:39;96290.88;;;9.08;96.21
30339;BME280;795;49.296;11.348;2023-04-28T01:06:08;96186.16;;;8.53;96.21
30339;BME280;795;49.296;11.348;2023-04-28T01:08:37;96224.38;;;8.72;94.57
30339;BME280;795;49.296;11.348;2023-04-28T01:11:05;96263.13;;;9.09;95.47
30339;BME280;795;49.296;11.348;2023-04-28T01:13:33;96258.25;;;9.05;93.80
30339;BME280;795;49.296;11.348;2023-04-28T01:16:00;96213.53;;;8.81;94.80
30339;BME280;795;49.296;11.348;2023-04-28T01:18:27;96154.84;;;8.46;95.91
30339;BME280;795;49.296;11.348;2023-04-28T01:20:55;96269.66;;;9.15;96.96
30339;BME280;795;49.296;11.348;2023-04-28T01:23:22;96265.16;;;9.15;95.60
30339;BME280;795;49.296;11.348;2023-04-28T01:25:49;96239.16;;;9.00;96.45
30339;BME280;795;49.296;11.348;2023-04-28T01:28:16;96237.13;;;8.94;96.32
30339;BME280;795;49.296;11.348;2023-04-28T01:30:43;96194.56;;;8.75;96.03
30339;BME280;795;49.296;11.348;2023-04-28T01:33:10;96239.84;;;9.02;95.46
30339;BME280;795;49.296;11.348;2023-04-28T01:35:37;96261.47;;;9.16;94.64
30339;BME280;795;49.296;11.348;2023-04-28T01:38:04;96219.41;;;8.93;94.36
30339;BME280;795;49.296;11.348;2023-04-28T01:40:31;96179.03;;;8.78;94.24
30339;BME280;795;49.296;11.348;2023-04-28T01:42:58;96162.13;;;8.69;94.28
30339;BME280;795;49.296;11.348;2023-04-28T01:45:25;96103.00;;;8.39;94.42
30339;BME280;795;49.296;11.348;2023-04-28T01:47:52;96195.81;;;8.88;95.95
30339;BME280;795;49.296;11.348;2023-04-28T01:50:19;96251.63;;;9.25;94.02
30339;BME280;795;49.296;11.348;2023-04-28T01:52:46;96248.75;;;9.26;93.62
30339;BME280;795;49.296;11.348;2023-04-28T01:55:13;96206.41;;;9.06;93.90
30339;BME280;795;49.296;11.348;2023-04-28T01:57:40;96214.75;;;9.11;94.58
30339;BME280;795;49.296;11.348;2023-04-28T02:00:07;96240.56;;;9.28;94.50
30339;BME280;795;49.296;11.348;2023-04-28T02:02:35;96246.25;;;9.33;93.72
30339;BME280;795;49.296;11.348;2023-04-28T02:05:02;96159.16;;;8.89;93.40
30339;BME280;795;49.296;11.348;2023-04-28T02:07:29;96227.19;;;9.36;92.69
30339;BME280;795;49.296;11.348;2023-04-28T02:09:56;96237.41;;;9.41;93.01
30339;BME280;795;49.296;11.348;2023-04-28T02:12:23;96194.69;;;9.15;92.78
30339;BME280;795;49.296;11.348;2023-04-28T02:14:50;96142.06;;;8.82;91.83
30339;BME280;795;49.296;11.348;2023-04-28T02:17:17;96240.91;;;9.41;92.95
30339;BME280;795;49.296;11.348;2023-04-28T02:19:44;96203.03;;;9.12;92.61
30339;BME280;795;49.296;11.348;2023-04-28T02:22:11;96133.66;;;8.60;93.77
30339;BME280;795;49.296;11.348;2023-04-28T02:24:38;96145.38;;;8.59;95.13
30339;BME280;795;49.296;11.348;2023-04-28T02:27:05;96128.63;;;8.49;96.23
30339;BME280;795;49.296;11.348;2023-04-28T02:29:32;96217.88;;;8.90;97.46
30339;BME280;795;49.296;11.348;2023-04-28T02:31:59;96101.94;;;8.24;98.09
30339;BME280;795;49.296;11.348;2023-04-28T02:34:26;96200.94;;;8.74;99.28
30339;BME280;795;49.296;11.348;2023-04-28T02:36:53;96239.66;;;8.95;100.00
30339;BME280;795;49.296;11.348;2023-04-28T02:39:20;96232.63;;;8.86;100.00
30339;BME280;795;49.296;11.348;2023-04-28T02:41:48;96128.25;;;8.36;99.76
30339;BME280;795;49.296;11.348;2023-04-28T02:44:15;96228.13;;;9.03;99.16
30339;BME280;795;49.296;11.348;2023-04-28T02:46:42;96194.63;;;8.99;97.17
30339;BME280;795;49.296;11.348;2023-04-28T02:49:09;96218.47;;;9.18;96.64
30339;BME280;795;49.296;11.348;2023-04-28T02:51:36;96196.69;;;9.13;95.38
30339;BME280;795;49.296;11.348;2023-04-28T02:54:03;96159.16;;;8.89;95.40
30339;BME280;795;49.296;11.348;2023-04-28T02:56:30;96206.41;;;9.22;95.38
30339;BME280;795;49.296;11.348;2023-04-28T02:58:57;96225.19;;;9.30;95.46
30339;BME280;795;49.296;11.348;2023-04-28T03:01:24;96205.75;;;9.20;96.90
30339;BME280;795;49.296;11.348;2023-04-28T03:03:51;96095.88;;;8.63;94.82
30339;BME280;795;49.296;11.348;2023-04-28T03:06:18;96200.22;;;9.29;94.34
30339;BME280;795;49.296;11.348;2023-04-28T03:08:45;96192.00;;;9.31;94.30
30339;BME280;795;49.296;11.348;2023-04-28T03:11:12;96131.53;;;8.96;93.62
30339;BME280;795;49.296;11.348;2023-04-28T03:13:39;96083.53;;;8.71;94.53
30339;BME280;795;49.296;11.348;2023-04-28T03:16:06;96078.50;;;8.76;93.25
30339;BME280;795;49.296;11.348;2023-04-28T03:18:33;96179.63;;;9.38;94.73
30339;BME280;795;49.296;11.348;2023-04-28T03:21:00;96130.75;;;9.12;92.73
30339;BME280;795;49.296;11.348;2023-04-28T03:23:27;96165.88;;;9.33;92.12
30339;BME280;795;49.296;11.348;2023-04-28T03:25:54;96176.09;;;9.46;93.69
30339;BME280;795;49.296;11.348;2023-04-28T03:28:21;96177.28;;;9.51;92.45
30339;BME280;795;49.296;11.348;2023-04-28T03:30:48;96082.34;;;8.89;93.65
30339;BME280;795;49.296;11.348;2023-04-28T03:33:15;96148.47;;;9.29;93.04
30339;BME280;795;49.296;11.348;2023-04-28T03:35:42;96146.47;;;9.31;95.26
30339;BME280;795;49.296;11.348;2023-04-28T03:38:09;96168.75;;;9.40;96.93
30339;BME280;795;49.296;11.348;2023-04-28T03:40:36;96165.91;;;9.41;96.73
30339;BME280;795;49.296;11.348;2023-04-28T03:43:03;96120.53;;;9.23;96.42
30339;BME280;795;49.296;11.348;2023-04-28T03:45:31;96149.13;;;9.47;97.26
30339;BME280;795;49.296;11.348;2023-04-28T03:47:58;96095.28;;;9.18;96.74
30339;BME280;795;49.296;11.348;2023-04-28T03:50:25;96153.66;;;9.55;97.02
30339;BME280;795;49.296;11.348;2023-04-28T03:52:52;96076.50;;;9.02;97.60
30339;BME280;795;49.296;11.348;2023-04-28T03:55:19;96164.03;;;9.58;95.56
30339;BME280;795;49.296;11.348;2023-04-28T03:57:46;96164.72;;;9.60;96.03
30339;BME280;795;49.296;11.348;2023-04-28T04:00:14;96168.56;;;9.57;97.02
30339;BME280;795;49.296;11.348;2023-04-28T04:02:41;96149.13;;;9.47;97.71
30339;BME280;795;49.296;11.348;2023-04-28T04:05:08;96091.09;;;9.15;96.65
30339;BME280;795;49.296;11.348;2023-04-28T04:07:35;96152.31;;;9.51;98.46
30339;BME280;795;49.296;11.348;2023-04-28T04:10:02;96158.69;;;9.58;96.96
30339;BME280;795;49.296;11.348;2023-04-28T04:12:30;96082.22;;;9.15;95.99
30339;BME280;795;49.296;11.348;2023-04-28T04:14:57;96097.09;;;9.33;95.65
30339;BME280;795;49.296;11.348;2023-04-28T04:17:24;96122.00;;;9.50;97.41
30339;BME280;795;49.296;11.348;2023-04-28T04:19:51;96106.78;;;9.51;96.41
30339;BME280;795;49.296;11.348;2023-04-28T04:22:18;96051.41;;;9.19;94.45
30339;BME280;795;49.296;11.348;2023-04-28T04:24:45;96126.34;;;9.75;94.50
30339;BME280;795;49.296;11.348;2023-04-28T04:27:11;96120.97;;;9.75;95.66
30339;BME280;795;49.296;11.348;2023-04-28T04:29:39;96119.81;;;9.78;94.63
30339;BME280;795;49.296;11.348;2023-04-28T04:32:06;96128.66;;;9.86;93.08
30339;BME280;795;49.296;11.348;2023-04-28T04:34:33;96108.03;;;9.79;94.06
30339;BME280;795;49.296;11.348;2023-04-28T04:36:59;96134.34;;;9.91;95.94
30339;BME280;795;49.296;11.348;2023-04-28T04:39:26;96112.94;;;9.75;96.92
30339;BME280;795;49.296;11.348;2023-04-28T04:41:53;96116.59;;;9.74;97.71
30339;BME280;795;49.296;11.348;2023-04-28T04:44:20;96095.69;;;9.62;97.47
30339;BME280;795;49.296;11.348;2023-04-28T04:46:47;96125.34;;;9.68;100.00
30339;BME280;795;49.296;11.348;2023-04-28T04:49:14;96136.72;;;9.70;100.00
30339;BME280;795;49.296;11.348;2023-04-28T04:51:41;96116.66;;;9.58;100.00
30339;BME280;795;49.296;11.348;2023-04-28T04:54:08;96109.78;;;9.56;100.00
30339;BME280;795;49.296;11.348;2023-04-28T04:56:35;96039.38;;;9.15;100.00
30339;BME280;795;49.296;11.348;2023-04-28T04:59:03;96053.06;;;9.28;100.00
30339;BME280;795;49.296;11.348;2023-04-28T05:01:30;96113.78;;;9.68;100.00
30339;BME280;795;49.296;11.348;2023-04-28T05:03:57;96091.38;;;9.53;100.00
30339;BME280;795;49.296;11.348;2023-04-28T05:06:24;96037.34;;;9.17;100.00
30339;BME280;795;49.296;11.348;2023-04-28T05:08:51;96107.44;;;9.61;100.00
30339;BME280;795;49.296;11.348;2023-04-28T05:11:18;96126.66;;;9.72;100.00
30339;BME280;795;49.296;11.348;2023-04-28T05:13:45;96024.63;;;9.19;100.00
30339;BME280;795;49.296;11.348;2023-04-28T05:16:12;96131.00;;;9.89;100.00
30339;BME280;795;49.296;11.348;2023-04-28T05:18:39;96091.50;;;9.67;100.00
30339;BME280;795;49.296;11.348;2023-04-28T05:21:06;96129.16;;;9.90;100.00
30339;BME280;795;49.296;11.348;2023-04-28T05:23:33;96124.63;;;9.90;100.00
30339;BME280;795;49.296;11.348;2023-04-28T05:26:00;96128.13;;;9.91;100.00
30339;BME280;795;49.296;11.348;2023-04-28T05:28:30;96073.06;;;9.64;100.00
30339;BME280;795;49.296;11.348;2023-04-28T05:30:57;96115.41;;;9.93;100.00
30339;BME280;795;49.296;11.348;2023-04-28T05:33:24;96120.78;;;9.93;100.00
30339;BME280;795;49.296;11.348;2023-04-28T05:35:51;96110.84;;;10.01;100.00
30339;BME280;795;49.296;11.348;2023-04-28T05:38:18;96061.28;;;9.81;98.94
30339;BME280;795;49.296;11.348;2023-04-28T05:40:47;96049.91;;;9.79;100.00
30339;BME280;795;49.296;11.348;2023-04-28T05:43:14;96104.78;;;10.16;99.64
30339;BME280;795;49.296;11.348;2023-04-28T05:45:41;96114.63;;;10.31;98.75
30339;BME280;795;49.296;11.348;2023-04-28T05:48:08;96118.44;;;10.37;99.99
30339;BME280;795;49.296;11.348;2023-04-28T05:50:35;96122.16;;;10.36;98.77
30339;BME280;795;49.296;11.348;2023-04-28T05:53:06;96112.19;;;10.44;97.64
30339;BME280;795;49.296;11.348;2023-04-28T05:55:33;96086.97;;;10.23;100.00
30339;BME280;795;49.296;11.348;2023-04-28T05:58:02;96031.97;;;9.88;99.32
30339;BME280;795;49.296;11.348;2023-04-28T06:00:30;96112.59;;;10.33;100.00
30339;BME280;795;49.296;11.348;2023-04-28T06:02:57;96082.97;;;10.19;100.00
30339;BME280;795;49.296;11.348;2023-04-28T06:05:24;96047.88;;;9.89;100.00
30339;BME280;795;49.296;11.348;2023-04-28T06:07:52;96144.47;;;10.36;100.00
30339;BME280;795;49.296;11.348;2023-04-28T06:10:24;96142.63;;;10.29;100.00
30339;BME280;795;49.296;11.348;2023-04-28T06:12:51;96043.13;;;9.53;100.00
30339;BME280;795;49.296;11.348;2023-04-28T06:15:18;96145.34;;;10.21;100.00
30339;BME280;795;49.296;11.348;2023-04-28T06:17:47;96145.16;;;10.22;100.00
30339;BME280;795;49.296;11.348;2023-04-28T06:20:14;96059.97;;;9.77;100.00
30339;BME280;795;49.296;11.348;2023-04-28T06:22:42;96111.50;;;10.03;100.00
30339;BME280;795;49.296;11.348;2023-04-28T06:25:09;96145.56;;;9.95;100.00
30339;BME280;795;49.296;11.348;2023-04-28T06:27:36;96132.53;;;9.76;100.00
30339;BME280;795;49.296;11.348;2023-04-28T06:30:03;96076.34;;;9.11;100.00
30339;BME280;795;49.296;11.348;2023-04-28T06:32:30;96147.66;;;9.28;100.00
30339;BME280;795;49.296;11.348;2023-04-28T06:34:57;96087.22;;;8.86;100.00
30339;BME280;795;49.296;11.348;2023-04-28T06:37:24;96156.34;;;9.14;100.00
30339;BME280;795;49.296;11.348;2023-04-28T06:39:51;96150.16;;;9.14;100.00
30339;BME280;795;49.296;11.348;2023-04-28T06:42:18;96014.06;;;8.29;100.00
30339;BME280;795;49.296;11.348;2023-04-28T06:44:46;96148.31;;;9.14;100.00
30339;BME280;795;49.296;11.348;2023-04-28T06:47:13;96054.06;;;8.46;100.00
30339;BME280;795;49.296;11.348;2023-04-28T06:49:40;96151.81;;;9.07;100.00
30339;BME280;795;49.296;11.348;2023-04-28T06:52:09;96008.84;;;8.19;100.00
30339;BME280;795;49.296;11.348;2023-04-28T06:54:36;96140.09;;;9.00;100.00
30339;BME280;795;49.296;11.348;2023-04-28T06:57:04;96088.03;;;8.70;100.00
30339;BME280;795;49.296;11.348;2023-04-28T06:59:31;96052.38;;;8.45;100.00
30339;BME280;795;49.296;11.348;2023-04-28T07:01:58;96134.91;;;8.98;100.00
30339;BME280;795;49.296;11.348;2023-04-28T07:04:25;96018.91;;;8.33;100.00
30339;BME280;795;49.296;11.348;2023-04-28T07:06:53;96129.06;;;9.03;100.00
30339;BME280;795;49.296;11.348;2023-04-28T07:09:20;96030.31;;;8.43;100.00
30339;BME280;795;49.296;11.348;2023-04-28T07:11:47;96120.50;;;8.99;100.00
30339;BME280;795;49.296;11.348;2023-04-28T07:14:13;96011.94;;;8.40;100.00
30339;BME280;795;49.296;11.348;2023-04-28T07:16:41;96097.78;;;8.95;100.00
30339;BME280;795;49.296;11.348;2023-04-28T07:19:08;96123.03;;;9.33;100.00
30339;BME280;795;49.296;11.348;2023-04-28T07:21:35;96021.31;;;8.77;100.00
30339;BME280;795;49.296;11.348;2023-04-28T07:24:02;96136.94;;;9.37;100.00
30339;BME280;795;49.296;11.348;2023-04-28T07:26:29;96025.63;;;8.53;100.00
30339;BME280;795;49.296;11.348;2023-04-28T07:28:56;96117.84;;;9.07;100.00
30339;BME280;795;49.296;11.348;2023-04-28T07:31:23;96116.00;;;9.00;100.00
30339;BME280;795;49.296;11.348;2023-04-28T07:33:50;96133.06;;;9.07;100.00
30339;BME280;795;49.296;11.348;2023-04-28T07:36:17;96063.13;;;8.61;100.00
30339;BME280;795;49.296;11.348;2023-04-28T07:38:44;96114.66;;;8.96;100.00
30339;BME280;795;49.296;11.348;2023-04-28T07:41:11;96048.88;;;8.53;100.00
30339;BME280;795;49.296;11.348;2023-04-28T07:43:39;96030.63;;;8.48;100.00
30339;BME280;795;49.296;11.348;2023-04-28T07:46:07;96135.44;;;9.18;100.00
30339;BME280;795;49.296;11.348;2023-04-28T07:48:34;96067.47;;;8.71;100.00
30339;BME280;795;49.296;11.348;2023-04-28T07:51:01;96131.41;;;9.14;100.00
30339;BME280;795;49.296;11.348;2023-04-28T07:53:28;96077.34;;;8.78;100.00
30339;BME280;795;49.296;11.348;2023-04-28T07:55:55;96081.84;;;8.78;100.00
30339;BME280;795;49.296;11.348;2023-04-28T07:58:22;96099.94;;;9.00;100.00
30339;BME280;795;49.296;11.348;2023-04-28T08:03:48;96088.06;;;8.86;100.00
30339;BME280;795;49.296;11.348;2023-04-28T08:06:15;96138.78;;;8.96;100.00
30339;BME280;795;49.296;11.348;2023-04-28T08:08:42;96114.00;;;8.86;100.00
30339;BME280;795;49.296;11.348;2023-04-28T08:11:09;96131.72;;;8.87;100.00
30339;BME280;795;49.296;11.348;2023-04-28T08:13:36;96110.81;;;8.74;100.00
30339;BME280;795;49.296;11.348;2023-04-28T08:16:03;96097.56;;;8.56;100.00
30339;BME280;795;49.296;11.348;2023-04-28T08:18:31;96069.75;;;8.41;100.00
30339;BME280;795;49.296;11.348;2023-04-28T08:20:58;96156.81;;;8.86;100.00
30339;BME280;795;49.296;11.348;2023-04-28T08:23:25;96061.66;;;8.25;100.00
30339;BME280;795;49.296;11.348;2023-04-28T08:25:57;96148.75;;;8.78;100.00
30339;BME280;795;49.296;11.348;2023-04-28T08:28:24;96163.50;;;8.90;100.00
30339;BME280;795;49.296;11.348;2023-04-28T08:30:51;96166.84;;;8.92;100.00
30339;BME280;795;49.296;11.348;2023-04-28T08:33:20;96023.31;;;8.00;100.00
30339;BME280;795;49.296;11.348;2023-04-28T08:35:47;96157.47;;;8.88;100.00
30339;BME280;795;49.296;11.348;2023-04-28T08:38:13;96089.81;;;8.45;100.00
30339;BME280;795;49.296;11.348;2023-04-28T08:40:43;96151.28;;;8.87;100.00
30339;BME280;795;49.296;11.348;2023-04-28T08:43:10;96039.56;;;8.15;100.00
30339;BME280;795;49.296;11.348;2023-04-28T08:45:42;96140.75;;;8.86;100.00
30339;BME280;795;49.296;11.348;2023-04-28T08:48:19;96128.56;;;8.91;100.00
30339;BME280;795;49.296;11.348;2023-04-28T08:50:52;96110.31;;;8.95;100.00
30339;BME280;795;49.296;11.348;2023-04-28T08:53:25;96037.84;;;8.56;100.00
30339;BME280;795;49.296;11.348;2023-04-28T08:55:57;96102.78;;;8.98;100.00
30339;BME280;795;49.296;11.348;2023-04-28T08:58:26;96127.72;;;9.23;100.00
30339;BME280;795;49.296;11.348;2023-04-28T09:00:54;96115.16;;;9.23;100.00
30339;BME280;795;49.296;11.348;2023-04-28T09:03:21;96112.66;;;9.14;100.00
30339;BME280;795;49.296;11.348;2023-04-28T09:05:49;96052.41;;;8.94;100.00
30339;BME280;795;49.296;11.348;2023-04-28T09:08:16;96074.84;;;9.01;100.00
30339;BME280;795;49.296;11.348;2023-04-28T09:10:43;96110.13;;;9.45;100.00
30339;BME280;795;49.296;11.348;2023-04-28T09:13:24;96043.38;;;9.03;100.00
30339;BME280;795;49.296;11.348;2023-04-28T09:15:59;96123.38;;;9.46;100.00
30339;BME280;795;49.296;11.348;2023-04-28T09:18:31;96118.34;;;9.51;100.00
30339;BME280;795;49.296;11.348;2023-04-28T09:21:09;96095.41;;;9.41;100.00
30339;BME280;795;49.296;11.348;2023-04-28T09:23:47;96121.84;;;9.52;100.00
30339;BME280;795;49.296;11.348;2023-04-28T09:26:16;96095.44;;;9.24;100.00
30339;BME280;795;49.296;11.348;2023-04-28T09:28:43;96072.47;;;9.14;100.00
30339;BME280;795;49.296;11.348;2023-04-28T09:31:25;96096.41;;;9.40;100.00
30339;BME280;795;49.296;11.348;2023-04-28T09:34:00;96055.44;;;9.07;100.00
30339;BME280;795;49.296;11.348;2023-04-28T09:36:29;96077.53;;;9.25;100.00
30339;BME280;795;49.296;11.348;2023-04-28T09:38:58;96138.75;;;9.52;100.00
30339;BME280;795;49.296;11.348;2023-04-28T09:41:41;96140.78;;;9.50;100.00
30339;BME280;795;49.296;11.348;2023-04-28T09:44:18;96094.72;;;9.30;100.00
30339;BME280;795;49.296;11.348;2023-04-28T09:46:47;96040.19;;;8.99;100.00
30339;BME280;795;49.296;11.348;2023-04-28T09:49:14;96076.16;;;9.37;100.00
30339;BME280;795;49.296;11.348;2023-04-28T09:51:41;96059.59;;;9.25;100.00
30339;BME280;795;49.296;11.348;2023-04-28T09:54:09;96075.81;;;9.40;100.00
30339;BME280;795;49.296;11.348;2023-04-28T09:56:41;96097.56;;;9.53;100.00
30339;BME280;795;49.296;11.348;2023-04-28T09:59:10;96067.75;;;9.48;100.00
30339;BME280;795;49.296;11.348;2023-04-28T10:01:39;96131.69;;;9.75;100.00
30339;BME280;795;49.296;11.348;2023-04-28T10:04:08;96130.00;;;9.74;100.00
30339;BME280;795;49.296;11.348;2023-04-28T10:06:39;96107.06;;;9.72;100.00
30339;BME280;795;49.296;11.348;2023-04-28T10:09:06;96027.94;;;9.21;100.00
30339;BME280;795;49.296;11.348;2023-04-28T10:11:34;96105.03;;;9.90;100.00
30339;BME280;795;49.296;11.348;2023-04-28T10:14:01;96085.41;;;9.81;100.00
30339;BME280;795;49.296;11.348;2023-04-28T10:16:30;96132.91;;;10.20;100.00
30339;BME280;795;49.296;11.348;2023-04-28T10:19:02;96081.41;;;9.85;100.00
30339;BME280;795;49.296;11.348;2023-04-28T10:21:40;96043.91;;;9.69;100.00
30339;BME280;795;49.296;11.348;2023-04-28T10:24:25;96063.78;;;9.91;100.00
30339;BME280;795;49.296;11.348;2023-04-28T10:27:08;96042.13;;;10.00;100.00
30339;BME280;795;49.296;11.348;2023-04-28T10:29:36;95991.44;;;9.83;100.00
30339;BME280;795;49.296;11.348;2023-04-28T10:32:19;96060.47;;;10.28;100.00
30339;BME280;795;49.296;11.348;2023-04-28T10:34:47;96114.91;;;10.75;100.00
30339;BME280;795;49.296;11.348;2023-04-28T10:37:15;96051.44;;;10.51;100.00
30339;BME280;795;49.296;11.348;2023-04-28T10:40:34;96093.31;;;10.91;100.00
30339;BME280;795;49.296;11.348;2023-04-28T10:43:03;96088.13;;;10.90;100.00
30339;BME280;795;49.296;11.348;2023-04-28T10:46:09;96066.19;;;10.55;100.00
30339;BME280;795;49.296;11.348;2023-04-28T10:56:21;96019.97;;;10.07;100.00
30339;BME280;795;49.296;11.348;2023-04-28T10:58:58;96083.78;;;10.58;100.00
30339;BME280;795;49.296;11.348;2023-04-28T11:01:30;96097.56;;;10.55;100.00
30339;BME280;795;49.296;11.348;2023-04-28T11:04:07;96107.56;;;10.61;100.00
30339;BME280;795;49.296;11.348;2023-04-28T11:06:41;96015.50;;;10.30;100.00
30339;BME280;795;49.296;11.348;2023-04-28T11:12:05;96088.88;;;10.98;100.00
30339;BME280;795;49.296;11.348;2023-04-28T11:14:37;96088.34;;;11.03;100.00
30339;BME280;795;49.296;11.348;2023-04-28T11:17:10;96095.81;;;11.15;100.00
30339;BME280;795;49.296;11.348;2023-04-28T11:19:48;96092.63;;;11.12;100.00
30339;BME280;795;49.296;11.348;2023-04-28T11:22:20;96063.50;;;11.01;100.00
30339;BME280;795;49.296;11.348;2023-04-28T11:24:56;96092.88;;;11.02;100.00
30339;BME280;795;49.296;11.348;2023-04-28T11:27:29;96091.38;;;11.00;100.00
30339;BME280;795;49.296;11.348;2023-04-28T11:29:57;96082.31;;;11.23;100.00
30339;BME280;795;49.296;11.348;2023-04-28T11:32:32;96076.03;;;11.46;100.00
30339;BME280;795;49.296;11.348;2023-04-28T11:35:02;96090.31;;;11.69;100.00
30339;BME280;795;49.296;11.348;2023-04-28T11:37:30;96082.25;;;11.69;100.00
30339;BME280;795;49.296;11.348;2023-04-28T11:39:57;96081.25;;;11.70;100.00
30339;BME280;795;49.296;11.348;2023-04-28T11:42:24;96081.91;;;11.86;100.00
30339;BME280;795;49.296;11.348;2023-04-28T11:44:53;95985.41;;;11.40;100.00
30339;BME280;795;49.296;11.348;2023-04-28T11:47:32;96066.31;;;11.82;100.00
30339;BME280;795;49.296;11.348;2023-04-28T11:50:00;96080.00;;;11.87;100.00
30339;BME280;795;49.296;11.348;2023-04-28T11:52:28;96082.06;;;12.14;100.00
30339;BME280;795;49.296;11.348;2023-04-28T11:54:59;96070.69;;;12.48;100.00
30339;BME280;795;49.296;11.348;2023-04-28T11:57:28;96066.03;;;12.92;100.00
30339;BME280;795;49.296;11.348;2023-04-28T12:00:15;96055.47;;;13.12;100.00
30339;BME280;795;49.296;11.348;2023-04-28T12:02:47;96062.38;;;13.21;100.00
30339;BME280;795;49.296;11.348;2023-04-28T12:05:15;96054.00;;;13.37;100.00
30339;BME280;795;49.296;11.348;2023-04-28T12:07:43;96062.66;;;13.26;100.00
30339;BME280;795;49.296;11.348;2023-04-28T12:10:13;96059.25;;;13.39;100.00
30339;BME280;795;49.296;11.348;2023-04-28T12:12:42;96057.91;;;13.07;100.00
30339;BME280;795;49.296;11.348;2023-04-28T12:15:19;96060.53;;;13.49;100.00
30339;BME280;795;49.296;11.348;2023-04-28T12:17:47;96002.47;;;12.98;100.00
30339;BME280;795;49.296;11.348;2023-04-28T12:20:38;96051.22;;;13.24;100.00
30339;BME280;795;49.296;11.348;2023-04-28T12:23:06;96041.38;;;13.38;100.00
30339;BME280;795;49.296;11.348;2023-04-28T12:25:45;96058.78;;;13.35;100.00
30339;BME280;795;49.296;11.348;2023-04-28T12:28:13;96050.34;;;13.45;100.00
30339;BME280;795;49.296;11.348;2023-04-28T12:30:40;96051.31;;;13.58;100.00
30339;BME280;795;49.296;11.348;2023-04-28T12:33:26;96041.19;;;13.39;100.00
30339;BME280;795;49.296;11.348;2023-04-28T12:35:56;96051.19;;;13.45;100.00
30339;BME280;795;49.296;11.348;2023-04-28T12:38:25;96037.72;;;13.45;100.00
30339;BME280;795;49.296;11.348;2023-04-28T12:40:52;96062.09;;;13.37;100.00
30339;BME280;795;49.296;11.348;2023-04-28T12:43:19;96048.66;;;13.65;100.00
30339;BME280;795;49.296;11.348;2023-04-28T12:45:53;96015.06;;;13.67;100.00
30339;BME280;795;49.296;11.348;2023-04-28T12:48:21;96032.50;;;14.40;100.00
30339;BME280;795;49.296;11.348;2023-04-28T12:50:52;96034.53;;;15.11;100.00
30339;BME280;795;49.296;11.348;2023-04-28T12:53:19;96040.19;;;15.95;100.00
30339;BME280;795;49.296;11.348;2023-04-28T12:55:46;96025.09;;;16.25;100.00
30339;BME280;795;49.296;11.348;2023-04-28T12:58:13;96031.13;;;16.34;100.00
30339;BME280;795;49.296;11.348;2023-04-28T13:00:40;96024.78;;;16.59;100.00
30339;BME280;795;49.296;11.348;2023-04-28T13:03:07;96005.81;;;16.59;100.00
30339;BME280;795;49.296;11.348;2023-04-28T13:05:34;96003.09;;;16.59;100.00
30339;BME280;795;49.296;11.348;2023-04-28T13:08:02;96006.97;;;16.32;100.00
30339;BME280;795;49.296;11.348;2023-04-28T13:10:29;96013.47;;;16.25;100.00
30339;BME280;795;49.296;11.348;2023-04-28T13:12:56;95988.41;;;15.72;100.00
30339;BME280;795;49.296;11.348;2023-04-28T13:15:23;96005.66;;;15.32;100.00
30339;BME280;795;49.296;11.348;2023-04-28T13:17:50;96023.75;;;15.18;100.00
30339;BME280;795;49.296;11.348;2023-04-28T13:20:17;96034.56;;;15.31;100.00
30339;BME280;795;49.296;11.348;2023-04-28T13:22:44;96013.13;;;15.16;100.00
30339;BME280;795;49.296;11.348;2023-04-28T13:25:11;95999.63;;;15.23;100.00
30339;BME280;795;49.296;11.348;2023-04-28T13:27:38;96010.44;;;15.29;100.00
30339;BME280;795;49.296;11.348;2023-04-28T13:30:10;96007.72;;;15.16;100.00
30339;BME280;795;49.296;11.348;2023-04-28T13:32:37;96015.25;;;15.21;100.00
30339;BME280;795;49.296;11.348;2023-04-28T13:35:06;96004.84;;;15.38;100.00